Cullowhee, North Carolina
Current Conditions -  °F | °C
As of 1:54 PM on Thursday 23 Oct 2014 (Local Time) from KAVL Reporting Station
Clear Clear  
Wind Chill: 62°   Ceiling: Unl
Heat Index: 62°   Visibility: 10mi
Dew Point: 35°   Wind: 17mph
Humidity: 37%   Direction: 330°NNW
Pressure: 30.08"   Gusts: 26mph
Location:  35.31°N, 83.18°W
Report Text: KAVL 231754Z 33015G23KT 10SM CLR 17/02 A3008 RMK AO2 SLP176 T01670017 10167 20061 58019
Loading
Personal Weather Stations






























Interactive Weather Map
Tropical Storm Tracking
New forecast layout! Learn more

10-Day Weather Forecast

Advertisements
Track Severe Weather on mobile